sensor_id;sensor_type;location;lat;lon;timestamp;P1;durP1;ratioP1;P2;durP2;ratioP2
64367;SDS011;50692;53.314;-6.300;2022-10-22T00:00:24;2.85;;;1.83;;
64367;SDS011;50692;53.314;-6.300;2022-10-22T00:03:10;3.75;;;1.02;;
64367;SDS011;50692;53.314;-6.300;2022-10-22T00:05:56;2.38;;;1.05;;
64367;SDS011;50692;53.314;-6.300;2022-10-22T00:08:41;1.80;;;1.00;;
64367;SDS011;50692;53.314;-6.300;2022-10-22T00:11:27;2.05;;;0.95;;
64367;SDS011;50692;53.314;-6.300;2022-10-22T00:14:13;2.40;;;0.90;;
64367;SDS011;50692;53.314;-6.300;2022-10-22T00:17:00;2.72;;;1.25;;
64367;SDS011;50692;53.314;-6.300;2022-10-22T00:19:46;2.25;;;1.08;;
64367;SDS011;50692;53.314;-6.300;2022-10-22T00:22:32;2.40;;;0.80;;
64367;SDS011;50692;53.314;-6.300;2022-10-22T00:25:18;1.63;;;0.75;;
64367;SDS011;50692;53.314;-6.300;2022-10-22T00:28:04;2.28;;;0.98;;
64367;SDS011;50692;53.314;-6.300;2022-10-22T00:30:56;3.13;;;1.00;;
64367;SDS011;50692;53.314;-6.300;2022-10-22T00:33:44;1.45;;;1.00;;
64367;SDS011;50692;53.314;-6.300;2022-10-22T00:36:31;1.45;;;0.73;;
64367;SDS011;50692;53.314;-6.300;2022-10-22T00:39:19;1.70;;;0.90;;
64367;SDS011;50692;53.314;-6.300;2022-10-22T00:42:06;1.50;;;0.77;;
64367;SDS011;50692;53.314;-6.300;2022-10-22T00:45:06;1.27;;;0.77;;
64367;SDS011;50692;53.314;-6.300;2022-10-22T00:48:05;2.05;;;0.80;;
64367;SDS011;50692;53.314;-6.300;2022-10-22T00:51:12;1.75;;;0.93;;
64367;SDS011;50692;53.314;-6.300;2022-10-22T00:54:03;2.05;;;0.65;;
64367;SDS011;50692;53.314;-6.300;2022-10-22T00:56:51;1.80;;;0.93;;
64367;SDS011;50692;53.314;-6.300;2022-10-22T00:59:38;0.50;;;0.50;;
64367;SDS011;50692;53.314;-6.300;2022-10-22T01:02:25;0.68;;;0.50;;
64367;SDS011;50692;53.314;-6.300;2022-10-22T01:05:12;1.10;;;0.80;;
64367;SDS011;50692;53.314;-6.300;2022-10-22T01:07:57;2.65;;;0.90;;
64367;SDS011;50692;53.314;-6.300;2022-10-22T01:20:37;0.85;;;0.68;;
64367;SDS011;50692;53.314;-6.300;2022-10-22T01:23:34;2.40;;;0.40;;
64367;SDS011;50692;53.314;-6.300;2022-10-22T01:26:50;0.82;;;0.68;;
64367;SDS011;50692;53.314;-6.300;2022-10-22T01:30:15;0.40;;;0.40;;
64367;SDS011;50692;53.314;-6.300;2022-10-22T01:33:02;1.13;;;0.77;;
64367;SDS011;50692;53.314;-6.300;2022-10-22T01:35:53;1.90;;;0.70;;
64367;SDS011;50692;53.314;-6.300;2022-10-22T01:38:39;1.17;;;0.57;;
64367;SDS011;50692;53.314;-6.300;2022-10-22T01:41:27;2.15;;;0.82;;
64367;SDS011;50692;53.314;-6.300;2022-10-22T01:44:47;1.33;;;0.50;;
64367;SDS011;50692;53.314;-6.300;2022-10-22T02:03:05;2.92;;;0.75;;
64367;SDS011;50692;53.314;-6.300;2022-10-22T02:05:58;1.45;;;0.50;;
64367;SDS011;50692;53.314;-6.300;2022-10-22T02:08:49;2.05;;;1.05;;
64367;SDS011;50692;53.314;-6.300;2022-10-22T02:11:37;2.50;;;0.67;;
64367;SDS011;50692;53.314;-6.300;2022-10-22T02:14:24;1.90;;;0.60;;
64367;SDS011;50692;53.314;-6.300;2022-10-22T02:17:15;2.22;;;0.70;;
64367;SDS011;50692;53.314;-6.300;2022-10-22T02:20:05;2.03;;;0.60;;
64367;SDS011;50692;53.314;-6.300;2022-10-22T02:23:12;1.65;;;0.50;;
64367;SDS011;50692;53.314;-6.300;2022-10-22T02:26:46;0.75;;;0.52;;
64367;SDS011;50692;53.314;-6.300;2022-10-22T02:29:35;1.35;;;0.50;;
64367;SDS011;50692;53.314;-6.300;2022-10-22T02:32:27;2.67;;;0.43;;
64367;SDS011;50692;53.314;-6.300;2022-10-22T02:35:21;1.48;;;0.88;;
64367;SDS011;50692;53.314;-6.300;2022-10-22T02:38:10;1.60;;;0.50;;
64367;SDS011;50692;53.314;-6.300;2022-10-22T02:40:57;2.03;;;0.60;;
64367;SDS011;50692;53.314;-6.300;2022-10-22T02:43:44;1.80;;;0.50;;
64367;SDS011;50692;53.314;-6.300;2022-10-22T02:46:35;1.60;;;0.70;;
64367;SDS011;50692;53.314;-6.300;2022-10-22T02:49:22;1.80;;;0.70;;
64367;SDS011;50692;53.314;-6.300;2022-10-22T02:52:08;1.40;;;0.60;;
64367;SDS011;50692;53.314;-6.300;2022-10-22T02:54:54;1.23;;;0.50;;
64367;SDS011;50692;53.314;-6.300;2022-10-22T02:57:39;0.80;;;0.45;;
64367;SDS011;50692;53.314;-6.300;2022-10-22T03:00:25;2.85;;;0.63;;
64367;SDS011;50692;53.314;-6.300;2022-10-22T03:03:11;0.80;;;0.50;;
64367;SDS011;50692;53.314;-6.300;2022-10-22T03:05:57;0.70;;;0.52;;
64367;SDS011;50692;53.314;-6.300;2022-10-22T03:08:43;1.17;;;0.73;;
64367;SDS011;50692;53.314;-6.300;2022-10-22T03:11:28;1.65;;;0.60;;
64367;SDS011;50692;53.314;-6.300;2022-10-22T03:14:14;1.95;;;0.60;;
64367;SDS011;50692;53.314;-6.300;2022-10-22T03:17:01;2.03;;;0.88;;
64367;SDS011;50692;53.314;-6.300;2022-10-22T03:19:47;1.50;;;0.70;;
64367;SDS011;50692;53.314;-6.300;2022-10-22T03:22:32;4.85;;;1.00;;
64367;SDS011;50692;53.314;-6.300;2022-10-22T03:25:21;3.97;;;0.90;;
64367;SDS011;50692;53.314;-6.300;2022-10-22T03:28:09;5.43;;;1.00;;
64367;SDS011;50692;53.314;-6.300;2022-10-22T03:31:00;2.65;;;0.88;;
64367;SDS011;50692;53.314;-6.300;2022-10-22T03:33:46;1.90;;;0.70;;
64367;SDS011;50692;53.314;-6.300;2022-10-22T03:36:32;1.00;;;0.90;;
64367;SDS011;50692;53.314;-6.300;2022-10-22T03:39:18;3.40;;;1.00;;
64367;SDS011;50692;53.314;-6.300;2022-10-22T03:42:06;4.28;;;0.93;;
64367;SDS011;50692;53.314;-6.300;2022-10-22T03:44:52;3.25;;;0.68;;
64367;SDS011;50692;53.314;-6.300;2022-10-22T03:47:38;2.65;;;1.00;;
64367;SDS011;50692;53.314;-6.300;2022-10-22T03:50:25;3.35;;;0.80;;
64367;SDS011;50692;53.314;-6.300;2022-10-22T03:53:11;2.72;;;0.80;;
64367;SDS011;50692;53.314;-6.300;2022-10-22T03:55:57;1.98;;;1.00;;
64367;SDS011;50692;53.314;-6.300;2022-10-22T03:58:42;2.90;;;0.80;;
64367;SDS011;50692;53.314;-6.300;2022-10-22T04:01:29;1.33;;;0.70;;
64367;SDS011;50692;53.314;-6.300;2022-10-22T04:04:15;1.50;;;0.80;;
64367;SDS011;50692;53.314;-6.300;2022-10-22T04:07:01;4.07;;;1.17;;
64367;SDS011;50692;53.314;-6.300;2022-10-22T04:09:46;3.47;;;1.00;;
64367;SDS011;50692;53.314;-6.300;2022-10-22T04:12:32;4.05;;;1.02;;
64367;SDS011;50692;53.314;-6.300;2022-10-22T04:15:18;2.20;;;1.20;;
64367;SDS011;50692;53.314;-6.300;2022-10-22T04:18:04;2.35;;;0.85;;
64367;SDS011;50692;53.314;-6.300;2022-10-22T04:20:50;3.75;;;0.93;;
64367;SDS011;50692;53.314;-6.300;2022-10-22T04:23:37;3.03;;;0.77;;
64367;SDS011;50692;53.314;-6.300;2022-10-22T04:26:23;3.00;;;0.88;;
64367;SDS011;50692;53.314;-6.300;2022-10-22T04:29:09;5.32;;;1.73;;
64367;SDS011;50692;53.314;-6.300;2022-10-22T04:31:55;2.75;;;1.13;;
64367;SDS011;50692;53.314;-6.300;2022-10-22T04:34:41;3.13;;;1.13;;
64367;SDS011;50692;53.314;-6.300;2022-10-22T04:37:27;4.40;;;1.20;;
64367;SDS011;50692;53.314;-6.300;2022-10-22T04:40:12;4.57;;;1.40;;
64367;SDS011;50692;53.314;-6.300;2022-10-22T04:42:58;2.03;;;1.00;;
64367;SDS011;50692;53.314;-6.300;2022-10-22T04:45:44;2.17;;;0.95;;
64367;SDS011;50692;53.314;-6.300;2022-10-22T04:48:30;2.83;;;1.20;;
64367;SDS011;50692;53.314;-6.300;2022-10-22T04:51:17;3.25;;;0.98;;
64367;SDS011;50692;53.314;-6.300;2022-10-22T04:54:04;6.82;;;1.52;;
64367;SDS011;50692;53.314;-6.300;2022-10-22T04:56:50;3.90;;;0.93;;
64367;SDS011;50692;53.314;-6.300;2022-10-22T04:59:36;3.53;;;1.30;;
64367;SDS011;50692;53.314;-6.300;2022-10-22T05:02:22;4.63;;;1.30;;
64367;SDS011;50692;53.314;-6.300;2022-10-22T05:05:07;2.35;;;1.08;;
64367;SDS011;50692;53.314;-6.300;2022-10-22T05:07:53;6.03;;;1.85;;
64367;SDS011;50692;53.314;-6.300;2022-10-22T05:10:39;3.72;;;1.45;;
64367;SDS011;50692;53.314;-6.300;2022-10-22T05:13:25;4.45;;;1.50;;
64367;SDS011;50692;53.314;-6.300;2022-10-22T05:16:10;5.45;;;1.55;;
64367;SDS011;50692;53.314;-6.300;2022-10-22T05:18:58;3.72;;;1.33;;
64367;SDS011;50692;53.314;-6.300;2022-10-22T05:21:44;5.63;;;1.92;;
64367;SDS011;50692;53.314;-6.300;2022-10-22T05:24:31;6.60;;;1.60;;
64367;SDS011;50692;53.314;-6.300;2022-10-22T05:27:18;5.22;;;1.45;;
64367;SDS011;50692;53.314;-6.300;2022-10-22T05:30:04;4.05;;;1.65;;
64367;SDS011;50692;53.314;-6.300;2022-10-22T05:32:50;4.00;;;1.20;;
64367;SDS011;50692;53.314;-6.300;2022-10-22T05:35:36;5.28;;;1.67;;
64367;SDS011;50692;53.314;-6.300;2022-10-22T05:38:22;5.13;;;1.60;;
64367;SDS011;50692;53.314;-6.300;2022-10-22T05:41:10;4.15;;;1.40;;
64367;SDS011;50692;53.314;-6.300;2022-10-22T05:43:58;6.90;;;1.52;;
64367;SDS011;50692;53.314;-6.300;2022-10-22T05:46:44;4.75;;;1.38;;
64367;SDS011;50692;53.314;-6.300;2022-10-22T05:49:30;3.63;;;1.13;;
64367;SDS011;50692;53.314;-6.300;2022-10-22T05:52:16;4.75;;;1.60;;
64367;SDS011;50692;53.314;-6.300;2022-10-22T05:55:02;2.72;;;1.10;;
64367;SDS011;50692;53.314;-6.300;2022-10-22T05:57:48;4.50;;;1.80;;
64367;SDS011;50692;53.314;-6.300;2022-10-22T06:00:34;4.80;;;1.20;;
64367;SDS011;50692;53.314;-6.300;2022-10-22T06:03:20;4.18;;;1.25;;
64367;SDS011;50692;53.314;-6.300;2022-10-22T06:06:49;6.97;;;1.70;;
64367;SDS011;50692;53.314;-6.300;2022-10-22T06:12:19;3.00;;;1.02;;
64367;SDS011;50692;53.314;-6.300;2022-10-22T06:15:05;2.95;;;1.08;;
64367;SDS011;50692;53.314;-6.300;2022-10-22T06:17:51;3.60;;;1.27;;
64367;SDS011;50692;53.314;-6.300;2022-10-22T06:20:37;5.43;;;1.60;;
64367;SDS011;50692;53.314;-6.300;2022-10-22T06:23:23;4.82;;;1.27;;
64367;SDS011;50692;53.314;-6.300;2022-10-22T06:26:09;3.35;;;1.25;;
64367;SDS011;50692;53.314;-6.300;2022-10-22T06:28:55;4.03;;;1.25;;
64367;SDS011;50692;53.314;-6.300;2022-10-22T06:31:42;3.53;;;1.17;;
64367;SDS011;50692;53.314;-6.300;2022-10-22T06:34:28;5.72;;;1.40;;
64367;SDS011;50692;53.314;-6.300;2022-10-22T06:37:14;2.97;;;1.10;;
64367;SDS011;50692;53.314;-6.300;2022-10-22T06:39:59;2.67;;;1.20;;
64367;SDS011;50692;53.314;-6.300;2022-10-22T06:42:45;3.80;;;1.27;;
64367;SDS011;50692;53.314;-6.300;2022-10-22T06:45:31;3.05;;;1.30;;
64367;SDS011;50692;53.314;-6.300;2022-10-22T06:48:17;4.57;;;1.30;;
64367;SDS011;50692;53.314;-6.300;2022-10-22T06:51:03;4.07;;;1.13;;
64367;SDS011;50692;53.314;-6.300;2022-10-22T06:53:51;5.30;;;1.45;;
64367;SDS011;50692;53.314;-6.300;2022-10-22T06:56:38;3.88;;;1.13;;
64367;SDS011;50692;53.314;-6.300;2022-10-22T06:59:24;2.55;;;1.05;;
64367;SDS011;50692;53.314;-6.300;2022-10-22T07:02:10;4.10;;;1.40;;
64367;SDS011;50692;53.314;-6.300;2022-10-22T07:04:56;2.78;;;1.15;;
64367;SDS011;50692;53.314;-6.300;2022-10-22T07:07:42;3.78;;;1.20;;
64367;SDS011;50692;53.314;-6.300;2022-10-22T07:10:27;3.97;;;0.80;;
64367;SDS011;50692;53.314;-6.300;2022-10-22T07:13:13;4.72;;;1.20;;
64367;SDS011;50692;53.314;-6.300;2022-10-22T07:16:00;2.75;;;0.93;;
64367;SDS011;50692;53.314;-6.300;2022-10-22T07:18:46;5.32;;;1.35;;
64367;SDS011;50692;53.314;-6.300;2022-10-22T07:21:33;1.75;;;1.08;;
64367;SDS011;50692;53.314;-6.300;2022-10-22T07:24:19;5.75;;;1.20;;
64367;SDS011;50692;53.314;-6.300;2022-10-22T07:27:05;3.45;;;1.00;;
64367;SDS011;50692;53.314;-6.300;2022-10-22T07:29:51;2.05;;;0.90;;
64367;SDS011;50692;53.314;-6.300;2022-10-22T07:32:37;1.83;;;1.25;;
64367;SDS011;50692;53.314;-6.300;2022-10-22T07:35:23;3.42;;;0.95;;
64367;SDS011;50692;53.314;-6.300;2022-10-22T07:38:08;4.53;;;0.93;;
64367;SDS011;50692;53.314;-6.300;2022-10-22T07:40:54;1.65;;;1.30;;
64367;SDS011;50692;53.314;-6.300;2022-10-22T07:43:40;4.35;;;1.08;;
64367;SDS011;50692;53.314;-6.300;2022-10-22T07:46:27;4.05;;;0.90;;
64367;SDS011;50692;53.314;-6.300;2022-10-22T07:49:12;3.05;;;1.00;;
64367;SDS011;50692;53.314;-6.300;2022-10-22T07:51:59;2.28;;;1.08;;
64367;SDS011;50692;53.314;-6.300;2022-10-22T07:54:45;3.22;;;1.10;;
64367;SDS011;50692;53.314;-6.300;2022-10-22T07:57:31;5.20;;;1.60;;
64367;SDS011;50692;53.314;-6.300;2022-10-22T08:00:17;4.00;;;1.42;;
64367;SDS011;50692;53.314;-6.300;2022-10-22T08:03:03;3.83;;;1.40;;
64367;SDS011;50692;53.314;-6.300;2022-10-22T08:05:49;2.95;;;1.02;;
64367;SDS011;50692;53.314;-6.300;2022-10-22T08:08:36;4.45;;;1.15;;
64367;SDS011;50692;53.314;-6.300;2022-10-22T08:11:21;3.42;;;1.00;;
64367;SDS011;50692;53.314;-6.300;2022-10-22T08:14:07;2.67;;;1.00;;
64367;SDS011;50692;53.314;-6.300;2022-10-22T08:16:53;2.78;;;1.00;;
64367;SDS011;50692;53.314;-6.300;2022-10-22T08:19:39;2.08;;;1.20;;
64367;SDS011;50692;53.314;-6.300;2022-10-22T08:22:24;2.85;;;1.00;;
64367;SDS011;50692;53.314;-6.300;2022-10-22T08:25:10;2.00;;;0.77;;
64367;SDS011;50692;53.314;-6.300;2022-10-22T08:27:56;2.83;;;0.85;;
64367;SDS011;50692;53.314;-6.300;2022-10-22T08:30:42;2.60;;;1.10;;
64367;SDS011;50692;53.314;-6.300;2022-10-22T08:33:30;3.42;;;1.42;;
64367;SDS011;50692;53.314;-6.300;2022-10-22T08:36:16;2.08;;;1.10;;
64367;SDS011;50692;53.314;-6.300;2022-10-22T08:39:02;3.40;;;1.38;;
64367;SDS011;50692;53.314;-6.300;2022-10-22T08:45:15;3.97;;;1.55;;
64367;SDS011;50692;53.314;-6.300;2022-10-22T08:51:22;5.50;;;1.30;;
64367;SDS011;50692;53.314;-6.300;2022-10-22T09:06:34;3.55;;;1.00;;
64367;SDS011;50692;53.314;-6.300;2022-10-22T09:09:22;3.40;;;1.58;;
64367;SDS011;50692;53.314;-6.300;2022-10-22T09:12:15;1.50;;;0.93;;
64367;SDS011;50692;53.314;-6.300;2022-10-22T09:15:02;3.67;;;1.02;;
64367;SDS011;50692;53.314;-6.300;2022-10-22T09:23:35;3.17;;;1.33;;
64367;SDS011;50692;53.314;-6.300;2022-10-22T09:26:31;1.95;;;0.93;;
64367;SDS011;50692;53.314;-6.300;2022-10-22T09:29:22;1.95;;;0.98;;
64367;SDS011;50692;53.314;-6.300;2022-10-22T09:32:15;2.60;;;1.35;;
64367;SDS011;50692;53.314;-6.300;2022-10-22T09:35:01;3.78;;;1.13;;
64367;SDS011;50692;53.314;-6.300;2022-10-22T09:37:49;2.40;;;1.15;;
64367;SDS011;50692;53.314;-6.300;2022-10-22T09:40:42;3.33;;;1.20;;
64367;SDS011;50692;53.314;-6.300;2022-10-22T09:43:31;3.65;;;1.30;;
64367;SDS011;50692;53.314;-6.300;2022-10-22T09:46:19;2.03;;;0.90;;
64367;SDS011;50692;53.314;-6.300;2022-10-22T09:51:58;3.28;;;0.95;;
64367;SDS011;50692;53.314;-6.300;2022-10-22T09:54:45;2.95;;;1.23;;
64367;SDS011;50692;53.314;-6.300;2022-10-22T09:57:31;2.83;;;1.30;;
64367;SDS011;50692;53.314;-6.300;2022-10-22T10:00:17;2.30;;;1.10;;
64367;SDS011;50692;53.314;-6.300;2022-10-22T10:03:04;1.88;;;0.73;;
64367;SDS011;50692;53.314;-6.300;2022-10-22T10:05:53;3.00;;;1.00;;
64367;SDS011;50692;53.314;-6.300;2022-10-22T10:08:41;1.88;;;0.93;;
64367;SDS011;50692;53.314;-6.300;2022-10-22T10:11:28;1.33;;;0.80;;
64367;SDS011;50692;53.314;-6.300;2022-10-22T10:20:30;1.67;;;0.90;;
64367;SDS011;50692;53.314;-6.300;2022-10-22T10:29:54;1.17;;;0.70;;
64367;SDS011;50692;53.314;-6.300;2022-10-22T10:45:31;1.77;;;0.80;;
64367;SDS011;50692;53.314;-6.300;2022-10-22T10:48:38;4.32;;;1.15;;
64367;SDS011;50692;53.314;-6.300;2022-10-22T10:51:51;1.70;;;0.80;;
64367;SDS011;50692;53.314;-6.300;2022-10-22T10:54:49;3.40;;;0.93;;
64367;SDS011;50692;53.314;-6.300;2022-10-22T10:57:44;2.17;;;1.17;;
64367;SDS011;50692;53.314;-6.300;2022-10-22T11:00:42;2.28;;;1.17;;
64367;SDS011;50692;53.314;-6.300;2022-10-22T11:07:06;2.80;;;1.30;;
64367;SDS011;50692;53.314;-6.300;2022-10-22T11:10:02;2.65;;;0.98;;
64367;SDS011;50692;53.314;-6.300;2022-10-22T11:16:22;2.17;;;0.82;;
64367;SDS011;50692;53.314;-6.300;2022-10-22T11:19:26;2.47;;;1.00;;
64367;SDS011;50692;53.314;-6.300;2022-10-22T11:22:28;3.50;;;1.10;;
64367;SDS011;50692;53.314;-6.300;2022-10-22T11:25:21;3.00;;;1.00;;
64367;SDS011;50692;53.314;-6.300;2022-10-22T11:28:15;3.40;;;1.00;;
64367;SDS011;50692;53.314;-6.300;2022-10-22T11:31:09;2.45;;;1.10;;
64367;SDS011;50692;53.314;-6.300;2022-10-22T11:36:58;1.90;;;1.00;;
64367;SDS011;50692;53.314;-6.300;2022-10-22T11:39:53;1.90;;;0.80;;
64367;SDS011;50692;53.314;-6.300;2022-10-22T11:42:45;2.15;;;1.00;;
64367;SDS011;50692;53.314;-6.300;2022-10-22T11:45:35;3.30;;;1.20;;
64367;SDS011;50692;53.314;-6.300;2022-10-22T11:48:25;2.05;;;0.98;;
64367;SDS011;50692;53.314;-6.300;2022-10-22T11:51:31;2.25;;;0.80;;
64367;SDS011;50692;53.314;-6.300;2022-10-22T11:54:30;2.75;;;1.40;;
64367;SDS011;50692;53.314;-6.300;2022-10-22T11:57:24;2.42;;;1.10;;
64367;SDS011;50692;53.314;-6.300;2022-10-22T12:06:21;3.42;;;1.10;;
64367;SDS011;50692;53.314;-6.300;2022-10-22T12:09:11;1.60;;;0.80;;
64367;SDS011;50692;53.314;-6.300;2022-10-22T12:12:00;2.08;;;1.00;;
64367;SDS011;50692;53.314;-6.300;2022-10-22T12:14:56;2.00;;;0.80;;
64367;SDS011;50692;53.314;-6.300;2022-10-22T12:17:42;1.30;;;0.80;;
64367;SDS011;50692;53.314;-6.300;2022-10-22T12:20:28;3.22;;;1.00;;
64367;SDS011;50692;53.314;-6.300;2022-10-22T12:23:14;2.17;;;0.90;;
64367;SDS011;50692;53.314;-6.300;2022-10-22T12:26:01;2.38;;;1.10;;
64367;SDS011;50692;53.314;-6.300;2022-10-22T12:28:48;2.28;;;1.45;;
64367;SDS011;50692;53.314;-6.300;2022-10-22T12:31:36;2.92;;;0.95;;
64367;SDS011;50692;53.314;-6.300;2022-10-22T12:37:09;1.63;;;0.60;;
64367;SDS011;50692;53.314;-6.300;2022-10-22T12:39:57;2.80;;;1.07;;
64367;SDS011;50692;53.314;-6.300;2022-10-22T12:45:44;2.03;;;0.80;;
64367;SDS011;50692;53.314;-6.300;2022-10-22T12:48:32;2.88;;;0.80;;
64367;SDS011;50692;53.314;-6.300;2022-10-22T12:51:23;2.03;;;0.90;;
64367;SDS011;50692;53.314;-6.300;2022-10-22T12:54:12;1.80;;;0.98;;
64367;SDS011;50692;53.314;-6.300;2022-10-22T12:57:12;1.70;;;0.90;;
64367;SDS011;50692;53.314;-6.300;2022-10-22T13:00:01;3.83;;;1.17;;
64367;SDS011;50692;53.314;-6.300;2022-10-22T13:02:48;1.50;;;0.70;;
64367;SDS011;50692;53.314;-6.300;2022-10-22T13:05:34;0.98;;;0.65;;
64367;SDS011;50692;53.314;-6.300;2022-10-22T13:08:26;2.63;;;0.90;;
64367;SDS011;50692;53.314;-6.300;2022-10-22T13:11:18;2.88;;;1.15;;
64367;SDS011;50692;53.314;-6.300;2022-10-22T13:14:17;2.00;;;1.02;;
64367;SDS011;50692;53.314;-6.300;2022-10-22T13:22:50;2.67;;;1.15;;
64367;SDS011;50692;53.314;-6.300;2022-10-22T13:25:38;1.47;;;1.00;;
64367;SDS011;50692;53.314;-6.300;2022-10-22T13:28:24;4.40;;;1.10;;
64367;SDS011;50692;53.314;-6.300;2022-10-22T13:31:16;2.03;;;1.00;;
64367;SDS011;50692;53.314;-6.300;2022-10-22T13:34:05;2.25;;;1.13;;
64367;SDS011;50692;53.314;-6.300;2022-10-22T13:36:54;3.10;;;1.08;;
64367;SDS011;50692;53.314;-6.300;2022-10-22T13:39:39;2.83;;;1.27;;
64367;SDS011;50692;53.314;-6.300;2022-10-22T13:42:25;3.92;;;1.08;;
64367;SDS011;50692;53.314;-6.300;2022-10-22T13:45:11;3.63;;;1.02;;
64367;SDS011;50692;53.314;-6.300;2022-10-22T13:47:58;2.75;;;1.00;;
64367;SDS011;50692;53.314;-6.300;2022-10-22T13:50:44;3.38;;;1.27;;
64367;SDS011;50692;53.314;-6.300;2022-10-22T13:53:30;2.85;;;1.13;;
64367;SDS011;50692;53.314;-6.300;2022-10-22T13:56:17;4.85;;;1.30;;
64367;SDS011;50692;53.314;-6.300;2022-10-22T13:59:05;3.95;;;1.52;;
64367;SDS011;50692;53.314;-6.300;2022-10-22T14:01:51;3.30;;;1.40;;
64367;SDS011;50692;53.314;-6.300;2022-10-22T14:04:38;4.50;;;1.35;;
64367;SDS011;50692;53.314;-6.300;2022-10-22T14:07:25;2.20;;;1.40;;
64367;SDS011;50692;53.314;-6.300;2022-10-22T14:10:12;2.25;;;1.10;;
64367;SDS011;50692;53.314;-6.300;2022-10-22T14:13:06;3.33;;;1.25;;
64367;SDS011;50692;53.314;-6.300;2022-10-22T14:15:57;2.83;;;1.20;;
64367;SDS011;50692;53.314;-6.300;2022-10-22T14:18:43;2.65;;;1.30;;
64367;SDS011;50692;53.314;-6.300;2022-10-22T14:21:32;2.70;;;1.23;;
64367;SDS011;50692;53.314;-6.300;2022-10-22T14:24:20;4.00;;;1.27;;
64367;SDS011;50692;53.314;-6.300;2022-10-22T14:27:07;2.90;;;1.13;;
64367;SDS011;50692;53.314;-6.300;2022-10-22T14:29:55;2.90;;;1.00;;
64367;SDS011;50692;53.314;-6.300;2022-10-22T14:32:41;3.63;;;1.35;;
64367;SDS011;50692;53.314;-6.300;2022-10-22T14:35:28;3.42;;;1.50;;
64367;SDS011;50692;53.314;-6.300;2022-10-22T14:38:14;3.08;;;1.25;;
64367;SDS011;50692;53.314;-6.300;2022-10-22T14:41:00;3.00;;;1.40;;
64367;SDS011;50692;53.314;-6.300;2022-10-22T14:43:47;3.33;;;1.20;;
64367;SDS011;50692;53.314;-6.300;2022-10-22T14:46:33;2.25;;;1.02;;
64367;SDS011;50692;53.314;-6.300;2022-10-22T14:49:19;3.72;;;1.10;;
64367;SDS011;50692;53.314;-6.300;2022-10-22T14:52:04;4.47;;;1.20;;
64367;SDS011;50692;53.314;-6.300;2022-10-22T14:54:50;5.72;;;1.67;;
64367;SDS011;50692;53.314;-6.300;2022-10-22T14:57:36;4.68;;;1.23;;
64367;SDS011;50692;53.314;-6.300;2022-10-22T15:00:25;4.65;;;1.15;;
64367;SDS011;50692;53.314;-6.300;2022-10-22T15:03:11;1.67;;;1.00;;
64367;SDS011;50692;53.314;-6.300;2022-10-22T15:05:57;3.35;;;1.30;;
64367;SDS011;50692;53.314;-6.300;2022-10-22T15:08:43;3.08;;;1.20;;
64367;SDS011;50692;53.314;-6.300;2022-10-22T15:11:30;3.20;;;1.35;;
64367;SDS011;50692;53.314;-6.300;2022-10-22T15:14:15;3.17;;;1.10;;
64367;SDS011;50692;53.314;-6.300;2022-10-22T15:17:02;3.40;;;1.27;;
64367;SDS011;50692;53.314;-6.300;2022-10-22T15:19:48;2.22;;;1.20;;
64367;SDS011;50692;53.314;-6.300;2022-10-22T15:22:34;2.78;;;1.00;;
64367;SDS011;50692;53.314;-6.300;2022-10-22T15:25:20;2.42;;;1.10;;
64367;SDS011;50692;53.314;-6.300;2022-10-22T15:28:05;3.33;;;1.10;;
64367;SDS011;50692;53.314;-6.300;2022-10-22T15:30:55;3.28;;;1.05;;
64367;SDS011;50692;53.314;-6.300;2022-10-22T15:33:43;2.20;;;1.10;;
64367;SDS011;50692;53.314;-6.300;2022-10-22T15:36:29;4.97;;;1.20;;
64367;SDS011;50692;53.314;-6.300;2022-10-22T15:39:15;2.75;;;1.10;;
64367;SDS011;50692;53.314;-6.300;2022-10-22T15:42:01;4.03;;;1.00;;
64367;SDS011;50692;53.314;-6.300;2022-10-22T15:44:47;2.50;;;0.95;;
64367;SDS011;50692;53.314;-6.300;2022-10-22T15:47:33;3.75;;;1.08;;
64367;SDS011;50692;53.314;-6.300;2022-10-22T15:50:19;2.35;;;1.00;;
64367;SDS011;50692;53.314;-6.300;2022-10-22T15:53:05;2.30;;;1.20;;
64367;SDS011;50692;53.314;-6.300;2022-10-22T15:55:51;1.77;;;1.00;;
64367;SDS011;50692;53.314;-6.300;2022-10-22T15:58:39;3.30;;;1.20;;
64367;SDS011;50692;53.314;-6.300;2022-10-22T16:01:25;1.98;;;0.90;;
64367;SDS011;50692;53.314;-6.300;2022-10-22T16:04:12;2.55;;;1.30;;
64367;SDS011;50692;53.314;-6.300;2022-10-22T16:06:58;2.90;;;1.10;;
64367;SDS011;50692;53.314;-6.300;2022-10-22T16:09:44;3.58;;;1.13;;
64367;SDS011;50692;53.314;-6.300;2022-10-22T16:12:29;4.15;;;0.90;;
64367;SDS011;50692;53.314;-6.300;2022-10-22T16:15:15;4.53;;;1.08;;
64367;SDS011;50692;53.314;-6.300;2022-10-22T16:18:01;2.50;;;0.98;;
64367;SDS011;50692;53.314;-6.300;2022-10-22T16:20:47;2.20;;;1.10;;
64367;SDS011;50692;53.314;-6.300;2022-10-22T16:23:33;2.35;;;0.93;;
64367;SDS011;50692;53.314;-6.300;2022-10-22T16:26:19;4.03;;;1.30;;
64367;SDS011;50692;53.314;-6.300;2022-10-22T16:29:05;3.92;;;1.35;;
64367;SDS011;50692;53.314;-6.300;2022-10-22T16:31:52;2.38;;;1.35;;
64367;SDS011;50692;53.314;-6.300;2022-10-22T16:34:38;1.65;;;1.00;;
64367;SDS011;50692;53.314;-6.300;2022-10-22T16:37:24;4.35;;;1.23;;
64367;SDS011;50692;53.314;-6.300;2022-10-22T16:40:10;3.00;;;0.75;;
64367;SDS011;50692;53.314;-6.300;2022-10-22T16:42:56;2.13;;;0.93;;
64367;SDS011;50692;53.314;-6.300;2022-10-22T16:45:46;5.53;;;1.83;;
64367;SDS011;50692;53.314;-6.300;2022-10-22T16:48:35;1.77;;;1.13;;
64367;SDS011;50692;53.314;-6.300;2022-10-22T16:51:25;2.70;;;1.33;;
64367;SDS011;50692;53.314;-6.300;2022-10-22T16:54:12;2.70;;;1.30;;
64367;SDS011;50692;53.314;-6.300;2022-10-22T16:56:59;3.15;;;1.20;;
64367;SDS011;50692;53.314;-6.300;2022-10-22T16:59:46;2.88;;;1.23;;
64367;SDS011;50692;53.314;-6.300;2022-10-22T17:02:33;2.33;;;1.20;;
64367;SDS011;50692;53.314;-6.300;2022-10-22T17:05:21;2.90;;;1.00;;
64367;SDS011;50692;53.314;-6.300;2022-10-22T17:08:07;1.10;;;0.80;;
64367;SDS011;50692;53.314;-6.300;2022-10-22T17:10:53;1.25;;;1.05;;
64367;SDS011;50692;53.314;-6.300;2022-10-22T17:13:39;2.38;;;0.90;;
64367;SDS011;50692;53.314;-6.300;2022-10-22T17:16:26;2.88;;;1.00;;
64367;SDS011;50692;53.314;-6.300;2022-10-22T17:19:12;1.30;;;0.75;;
64367;SDS011;50692;53.314;-6.300;2022-10-22T17:22:00;0.75;;;0.70;;
64367;SDS011;50692;53.314;-6.300;2022-10-22T17:24:45;1.30;;;1.20;;
64367;SDS011;50692;53.314;-6.300;2022-10-22T17:27:31;1.42;;;0.73;;
64367;SDS011;50692;53.314;-6.300;2022-10-22T17:30:17;2.20;;;1.67;;
64367;SDS011;50692;53.314;-6.300;2022-10-22T17:33:07;1.40;;;0.90;;
64367;SDS011;50692;53.314;-6.300;2022-10-22T17:35:53;1.40;;;0.80;;
64367;SDS011;50692;53.314;-6.300;2022-10-22T17:38:40;2.83;;;1.15;;
64367;SDS011;50692;53.314;-6.300;2022-10-22T17:41:31;1.40;;;1.05;;
64367;SDS011;50692;53.314;-6.300;2022-10-22T17:44:18;1.35;;;0.80;;
64367;SDS011;50692;53.314;-6.300;2022-10-22T17:47:03;1.95;;;1.05;;
64367;SDS011;50692;53.314;-6.300;2022-10-22T17:49:49;1.65;;;1.00;;
64367;SDS011;50692;53.314;-6.300;2022-10-22T17:52:35;1.08;;;0.90;;
64367;SDS011;50692;53.314;-6.300;2022-10-22T17:55:21;5.40;;;4.40;;
64367;SDS011;50692;53.314;-6.300;2022-10-22T17:58:06;6.10;;;5.50;;
64367;SDS011;50692;53.314;-6.300;2022-10-22T18:00:52;3.90;;;3.50;;
64367;SDS011;50692;53.314;-6.300;2022-10-22T18:03:38;3.03;;;2.50;;
64367;SDS011;50692;53.314;-6.300;2022-10-22T18:06:24;1.38;;;1.02;;
64367;SDS011;50692;53.314;-6.300;2022-10-22T18:09:10;2.70;;;2.00;;
64367;SDS011;50692;53.314;-6.300;2022-10-22T18:11:58;3.03;;;1.90;;
64367;SDS011;50692;53.314;-6.300;2022-10-22T18:14:44;1.52;;;1.00;;
64367;SDS011;50692;53.314;-6.300;2022-10-22T18:17:31;2.60;;;1.70;;
64367;SDS011;50692;53.314;-6.300;2022-10-22T18:20:17;2.65;;;2.03;;
64367;SDS011;50692;53.314;-6.300;2022-10-22T18:23:03;3.70;;;2.83;;
64367;SDS011;50692;53.314;-6.300;2022-10-22T18:25:48;4.45;;;2.95;;